sensor_id;sensor_type;location;lat;lon;timestamp;pressure;altitude;pressure_sealevel;temperature;humidity
50652;BME280;66928;52.086;5.240;2023-03-16T06:33:41;101324.0;;;6.84;76.16
50652;BME280;66928;52.086;5.240;2023-03-16T06:35:18;101314.0;;;6.85;76.44
50652;BME280;66928;52.086;5.240;2023-03-16T06:38:30;101313.0;;;6.95;76.34
50652;BME280;66928;52.086;5.240;2023-03-16T06:40:07;101313.0;;;6.88;76.44
50652;BME280;66928;52.086;5.240;2023-03-16T06:41:44;101318.0;;;6.93;77.11
50652;BME280;66928;52.086;5.240;2023-03-16T06:44:56;101306.0;;;6.96;76.91
50652;BME280;66928;52.086;5.240;2023-03-16T06:46:32;101312.0;;;6.98;76.73
50652;BME280;66928;52.086;5.240;2023-03-16T06:48:08;101307.0;;;6.97;76.86
50652;BME280;66928;52.086;5.240;2023-03-16T06:51:21;101311.0;;;6.99;76.52
50652;BME280;66928;52.086;5.240;2023-03-16T06:52:57;101314.0;;;6.9;76.63
50652;BME280;66928;52.086;5.240;2023-03-16T06:54:33;101311.0;;;6.96;76.92
50652;BME280;66928;52.086;5.240;2023-03-16T06:57:46;101309.0;;;7.02;76.45
50652;BME280;66928;52.086;5.240;2023-03-16T06:59:22;101307.0;;;7.17;75.67
50652;BME280;66928;52.086;5.240;2023-03-16T07:01:00;101307.0;;;7.16;75.66
50652;BME280;66928;52.086;5.240;2023-03-16T07:02:37;101306.0;;;7.24;75.24
50652;BME280;66928;52.086;5.240;2023-03-16T07:05:49;101305.0;;;7.2;75.16
50652;BME280;66928;52.086;5.240;2023-03-16T07:07:25;101301.0;;;7.16;75.24
50652;BME280;66928;52.086;5.240;2023-03-16T07:09:01;101301.0;;;7.24;75.58
50652;BME280;66928;52.086;5.240;2023-03-16T07:12:14;101303.0;;;7.27;75.41
50652;BME280;66928;52.086;5.240;2023-03-16T07:13:51;101297.0;;;7.28;75.3
50652;BME280;66928;52.086;5.240;2023-03-16T07:15:27;101294.0;;;7.28;75.38
50652;BME280;66928;52.086;5.240;2023-03-16T07:18:39;101301.0;;;7.23;75.36
50652;BME280;66928;52.086;5.240;2023-03-16T07:20:15;101299.0;;;7.27;75.13
50652;BME280;66928;52.086;5.240;2023-03-16T07:21:51;101303.0;;;7.29;75.41
50652;BME280;66928;52.086;5.240;2023-03-16T07:23:27;101295.0;;;7.27;75.41
50652;BME280;66928;52.086;5.240;2023-03-16T07:26:42;101297.0;;;7.18;75.8
50652;BME280;66928;52.086;5.240;2023-03-16T07:28:18;101288.0;;;7.16;75.89
50652;BME280;66928;52.086;5.240;2023-03-16T07:29:55;101290.0;;;7.16;76.06
50652;BME280;66928;52.086;5.240;2023-03-16T07:33:08;101285.0;;;7.29;75.84
50652;BME280;66928;52.086;5.240;2023-03-16T07:34:43;101289.0;;;7.25;75.36
50652;BME280;66928;52.086;5.240;2023-03-16T07:36:20;101287.0;;;7.22;75.73
50652;BME280;66928;52.086;5.240;2023-03-16T07:39:32;101296.0;;;7.35;75.41
50652;BME280;66928;52.086;5.240;2023-03-16T07:41:08;101292.0;;;7.32;75.58
50652;BME280;66928;52.086;5.240;2023-03-16T07:42:44;101294.0;;;7.48;75.42
50652;BME280;66928;52.086;5.240;2023-03-16T07:44:20;101299.0;;;7.45;75.22
50652;BME280;66928;52.086;5.240;2023-03-16T07:47:33;101294.0;;;7.38;75.31
50652;BME280;66928;52.086;5.240;2023-03-16T07:49:10;101301.0;;;7.5;75.13
50652;BME280;66928;52.086;5.240;2023-03-16T07:50:47;101305.0;;;7.32;75.41
50652;BME280;66928;52.086;5.240;2023-03-16T07:53:59;101310.0;;;7.37;75.52
50652;BME280;66928;52.086;5.240;2023-03-16T07:55:35;101308.0;;;7.63;74.83
50652;BME280;66928;52.086;5.240;2023-03-16T07:57:11;101308.0;;;7.69;74.36
50652;BME280;66928;52.086;5.240;2023-03-16T08:00:24;101299.0;;;7.7;74.14
50652;BME280;66928;52.086;5.240;2023-03-16T08:02:00;101296.0;;;7.75;74.58
50652;BME280;66928;52.086;5.240;2023-03-16T08:03:37;101292.0;;;7.67;74.72
50652;BME280;66928;52.086;5.240;2023-03-16T08:05:13;101287.0;;;7.72;74.94
50652;BME280;66928;52.086;5.240;2023-03-16T08:08:25;101290.0;;;7.75;73.7
50652;BME280;66928;52.086;5.240;2023-03-16T08:10:02;101287.0;;;7.91;74.03
50652;BME280;66928;52.086;5.240;2023-03-16T08:11:38;101286.0;;;7.96;73.12
50652;BME280;66928;52.086;5.240;2023-03-16T08:14:51;101273.0;;;8.05;73.16
50652;BME280;66928;52.086;5.240;2023-03-16T08:16:27;101270.0;;;8.02;72.59
50652;BME280;66928;52.086;5.240;2023-03-16T08:18:03;101276.0;;;8.15;72.62
50652;BME280;66928;52.086;5.240;2023-03-16T08:21:16;101280.0;;;8.23;71.91
50652;BME280;66928;52.086;5.240;2023-03-16T08:22:53;101276.0;;;8.28;71.58
50652;BME280;66928;52.086;5.240;2023-03-16T08:24:29;101278.0;;;8.31;71.24
50652;BME280;66928;52.086;5.240;2023-03-16T08:27:41;101276.0;;;8.43;70.92
50652;BME280;66928;52.086;5.240;2023-03-16T08:29:17;101272.0;;;8.3;71.11
50652;BME280;66928;52.086;5.240;2023-03-16T08:30:54;101272.0;;;8.28;70.99
50652;BME280;66928;52.086;5.240;2023-03-16T08:32:31;101280.0;;;8.32;70.84
50652;BME280;66928;52.086;5.240;2023-03-16T08:35:45;101286.0;;;8.33;70.33
50652;BME280;66928;52.086;5.240;2023-03-16T08:37:23;101285.0;;;8.36;70.7
50652;BME280;66928;52.086;5.240;2023-03-16T08:38:59;101281.0;;;8.5;69.92
50652;BME280;66928;52.086;5.240;2023-03-16T08:42:12;101294.0;;;8.71;69.55
50652;BME280;66928;52.086;5.240;2023-03-16T08:43:48;101291.0;;;8.82;68.98
50652;BME280;66928;52.086;5.240;2023-03-16T08:45:24;101295.0;;;8.63;69.62
50652;BME280;66928;52.086;5.240;2023-03-16T08:48:36;101294.0;;;8.64;69.34
50652;BME280;66928;52.086;5.240;2023-03-16T08:50:13;101287.0;;;8.77;69.16
50652;BME280;66928;52.086;5.240;2023-03-16T08:51:49;101285.0;;;8.68;68.78
50652;BME280;66928;52.086;5.240;2023-03-16T08:53:25;101278.0;;;8.6;68.77
50652;BME280;66928;52.086;5.240;2023-03-16T08:56:38;101281.0;;;8.53;68.81
50652;BME280;66928;52.086;5.240;2023-03-16T08:58:14;101280.0;;;8.61;68.91
50652;BME280;66928;52.086;5.240;2023-03-16T08:59:50;101276.0;;;8.6;68.56
50652;BME280;66928;52.086;5.240;2023-03-16T09:03:03;101271.0;;;8.64;68.49
50652;BME280;66928;52.086;5.240;2023-03-16T09:04:41;101268.0;;;8.64;68.09
50652;BME280;66928;52.086;5.240;2023-03-16T09:06:17;101267.0;;;8.67;68.14
50652;BME280;66928;52.086;5.240;2023-03-16T09:09:30;101263.0;;;8.63;67.97
50652;BME280;66928;52.086;5.240;2023-03-16T09:11:08;101262.0;;;8.67;67.78
50652;BME280;66928;52.086;5.240;2023-03-16T09:12:45;101259.0;;;8.91;67.06
50652;BME280;66928;52.086;5.240;2023-03-16T09:14:21;101260.0;;;8.91;66.99
50652;BME280;66928;52.086;5.240;2023-03-16T09:17:34;101262.0;;;8.88;66.98
50652;BME280;66928;52.086;5.240;2023-03-16T09:19:10;101253.0;;;8.66;67.44
50652;BME280;66928;52.086;5.240;2023-03-16T09:20:46;101261.0;;;8.75;66.8
50652;BME280;66928;52.086;5.240;2023-03-16T09:26:13;101262.0;;;8.94;66.8
50652;BME280;66928;52.086;5.240;2023-03-16T09:27:50;101264.0;;;9.02;66.35
50652;BME280;66928;52.086;5.240;2023-03-16T09:29:26;101263.0;;;8.98;65.94
50652;BME280;66928;52.086;5.240;2023-03-16T09:31:03;101258.0;;;9.13;65.99
50652;BME280;66928;52.086;5.240;2023-03-16T09:34:15;101255.0;;;9.14;66.05
50652;BME280;66928;52.086;5.240;2023-03-16T09:35:51;101255.0;;;9.08;66.09
50652;BME280;66928;52.086;5.240;2023-03-16T09:37:28;101263.0;;;9.0;65.41
50652;BME280;66928;52.086;5.240;2023-03-16T09:40:40;101260.0;;;9.09;65.59
50652;BME280;66928;52.086;5.240;2023-03-16T09:42:18;101258.0;;;9.27;65.23
50652;BME280;66928;52.086;5.240;2023-03-16T09:44:09;101257.0;;;9.25;64.74
50652;BME280;66928;52.086;5.240;2023-03-16T09:45:57;101253.0;;;9.26;64.74
50652;BME280;66928;52.086;5.240;2023-03-16T09:49:18;101251.0;;;9.39;64.27
50652;BME280;66928;52.086;5.240;2023-03-16T09:50:57;101248.0;;;9.52;63.73
50652;BME280;66928;52.086;5.240;2023-03-16T09:52:39;101246.0;;;9.56;63.58
50652;BME280;66928;52.086;5.240;2023-03-16T09:54:23;101250.0;;;9.51;63.6
50652;BME280;66928;52.086;5.240;2023-03-16T09:56:07;101248.0;;;9.57;63.29
50652;BME280;66928;52.086;5.240;2023-03-16T09:59:24;101238.0;;;9.44;63.16
50652;BME280;66928;52.086;5.240;2023-03-16T10:01:06;101241.0;;;9.47;63.2
50652;BME280;66928;52.086;5.240;2023-03-16T10:02:58;101241.0;;;9.58;63.24
50652;BME280;66928;52.086;5.240;2023-03-16T10:04:56;101242.0;;;9.66;63.53
50652;BME280;66928;52.086;5.240;2023-03-16T10:06:45;101244.0;;;9.68;63.22
50652;BME280;66928;52.086;5.240;2023-03-16T10:10:19;101234.0;;;9.8;62.56
50652;BME280;66928;52.086;5.240;2023-03-16T10:12:02;101245.0;;;9.88;62.34
50652;BME280;66928;52.086;5.240;2023-03-16T10:13:46;101233.0;;;9.94;61.91
50652;BME280;66928;52.086;5.240;2023-03-16T10:15:26;101225.0;;;10.0;61.64
50652;BME280;66928;52.086;5.240;2023-03-16T10:17:08;101228.0;;;10.14;61.34
50652;BME280;66928;52.086;5.240;2023-03-16T10:20:36;101228.0;;;10.19;61.08
50652;BME280;66928;52.086;5.240;2023-03-16T10:22:18;101225.0;;;10.13;60.8
50652;BME280;66928;52.086;5.240;2023-03-16T10:23:58;101238.0;;;10.18;60.95
50652;BME280;66928;52.086;5.240;2023-03-16T10:25:42;101234.0;;;10.29;60.88
50652;BME280;66928;52.086;5.240;2023-03-16T10:29:03;101235.0;;;10.35;60.56
50652;BME280;66928;52.086;5.240;2023-03-16T10:30:41;101230.0;;;10.29;59.9
50652;BME280;66928;52.086;5.240;2023-03-16T10:32:18;101224.0;;;10.42;60.41
50652;BME280;66928;52.086;5.240;2023-03-16T10:34:01;101218.0;;;10.5;60.0
50652;BME280;66928;52.086;5.240;2023-03-16T10:37:23;101213.0;;;10.66;59.88
50652;BME280;66928;52.086;5.240;2023-03-16T10:39:03;101211.0;;;10.85;60.4
50652;BME280;66928;52.086;5.240;2023-03-16T10:40:40;101214.0;;;10.95;58.63
50652;BME280;66928;52.086;5.240;2023-03-16T10:42:18;101206.0;;;11.1;59.0
50652;BME280;66928;52.086;5.240;2023-03-16T10:45:35;101205.0;;;11.2;58.31
50652;BME280;66928;52.086;5.240;2023-03-16T10:47:16;101203.0;;;11.29;57.7
50652;BME280;66928;52.086;5.240;2023-03-16T10:48:55;101203.0;;;11.33;56.65
50652;BME280;66928;52.086;5.240;2023-03-16T10:50:32;101199.0;;;11.52;56.63
50652;BME280;66928;52.086;5.240;2023-03-16T10:53:56;101193.0;;;11.56;55.76
50652;BME280;66928;52.086;5.240;2023-03-16T10:55:42;101196.0;;;11.43;56.39
50652;BME280;66928;52.086;5.240;2023-03-16T10:57:22;101195.0;;;11.36;55.68
50652;BME280;66928;52.086;5.240;2023-03-16T11:01:09;101192.0;;;11.37;55.6
50652;BME280;66928;52.086;5.240;2023-03-16T11:04:23;101187.0;;;11.48;55.72
50652;BME280;66928;52.086;5.240;2023-03-16T11:06:00;101180.0;;;11.59;55.57
50652;BME280;66928;52.086;5.240;2023-03-16T11:09:19;101178.0;;;11.63;55.84
50652;BME280;66928;52.086;5.240;2023-03-16T11:10:57;101180.0;;;11.69;55.72
50652;BME280;66928;52.086;5.240;2023-03-16T11:14:12;101176.0;;;11.68;55.42
50652;BME280;66928;52.086;5.240;2023-03-16T11:15:52;101176.0;;;11.69;54.85
50652;BME280;66928;52.086;5.240;2023-03-16T11:19:17;101164.0;;;11.9;54.9
50652;BME280;66928;52.086;5.240;2023-03-16T11:21:00;101159.0;;;11.6;55.12
50652;BME280;66928;52.086;5.240;2023-03-16T11:22:39;101156.0;;;11.75;55.3
50652;BME280;66928;52.086;5.240;2023-03-16T11:24:22;101149.0;;;11.86;54.58
50652;BME280;66928;52.086;5.240;2023-03-16T11:29:34;101136.0;;;11.88;54.62
50652;BME280;66928;52.086;5.240;2023-03-16T11:31:21;101139.0;;;12.0;54.31
50652;BME280;66928;52.086;5.240;2023-03-16T11:33:01;101133.0;;;12.07;53.58
50652;BME280;66928;52.086;5.240;2023-03-16T11:34:37;101134.0;;;11.85;53.39
50652;BME280;66928;52.086;5.240;2023-03-16T11:38:10;101136.0;;;12.19;53.74
50652;BME280;66928;52.086;5.240;2023-03-16T11:39:57;101141.0;;;12.34;53.18
50652;BME280;66928;52.086;5.240;2023-03-16T11:41:46;101141.0;;;12.35;52.99
50652;BME280;66928;52.086;5.240;2023-03-16T11:43:48;101139.0;;;12.43;52.45
50652;BME280;66928;52.086;5.240;2023-03-16T11:45:30;101135.0;;;12.42;52.28
50652;BME280;66928;52.086;5.240;2023-03-16T11:47:27;101130.0;;;12.61;51.6
50652;BME280;66928;52.086;5.240;2023-03-16T11:49:49;101130.0;;;12.51;51.23
50652;BME280;66928;52.086;5.240;2023-03-16T11:51:43;101131.0;;;12.71;50.95
50652;BME280;66928;52.086;5.240;2023-03-16T11:53:30;101121.0;;;12.71;49.95
50652;BME280;66928;52.086;5.240;2023-03-16T11:57:12;101122.0;;;12.7;49.43
50652;BME280;66928;52.086;5.240;2023-03-16T11:59:06;101116.0;;;12.69;49.27
50652;BME280;66928;52.086;5.240;2023-03-16T12:01:41;101117.0;;;12.8;49.44
50652;BME280;66928;52.086;5.240;2023-03-16T12:03:32;101109.0;;;12.8;48.62
50652;BME280;66928;52.086;5.240;2023-03-16T12:06:30;101107.0;;;13.01;48.4
50652;BME280;66928;52.086;5.240;2023-03-16T12:08:32;101105.0;;;13.14;48.88
50652;BME280;66928;52.086;5.240;2023-03-16T12:10:24;101105.0;;;13.15;48.28
50652;BME280;66928;52.086;5.240;2023-03-16T12:13:59;101099.0;;;13.13;48.32
50652;BME280;66928;52.086;5.240;2023-03-16T12:15:46;101097.0;;;13.29;47.68
50652;BME280;66928;52.086;5.240;2023-03-16T12:17:28;101094.0;;;13.21;47.07
50652;BME280;66928;52.086;5.240;2023-03-16T12:19:13;101096.0;;;13.26;47.5
50652;BME280;66928;52.086;5.240;2023-03-16T12:20:54;101087.0;;;13.34;46.57
50652;BME280;66928;52.086;5.240;2023-03-16T12:22:35;101078.0;;;13.31;46.0
50652;BME280;66928;52.086;5.240;2023-03-16T12:25:58;101085.0;;;13.59;46.25
50652;BME280;66928;52.086;5.240;2023-03-16T12:27:37;101086.0;;;13.59;46.81
50652;BME280;66928;52.086;5.240;2023-03-16T12:29:23;101091.0;;;13.55;46.96
50652;BME280;66928;52.086;5.240;2023-03-16T12:31:11;101085.0;;;13.58;46.47
50652;BME280;66928;52.086;5.240;2023-03-16T12:34:40;101089.0;;;13.64;45.86
50652;BME280;66928;52.086;5.240;2023-03-16T12:36:47;101081.0;;;13.68;45.43
50652;BME280;66928;52.086;5.240;2023-03-16T12:38:59;101072.0;;;13.61;45.22
50652;BME280;66928;52.086;5.240;2023-03-16T12:40:42;101072.0;;;13.66;45.63
50652;BME280;66928;52.086;5.240;2023-03-16T12:42:33;101076.0;;;13.7;44.74
50652;BME280;66928;52.086;5.240;2023-03-16T12:44:18;101077.0;;;13.7;44.79
50652;BME280;66928;52.086;5.240;2023-03-16T12:46:00;101058.0;;;13.82;44.7
50652;BME280;66928;52.086;5.240;2023-03-16T12:47:47;101057.0;;;13.66;44.28
50652;BME280;66928;52.086;5.240;2023-03-16T12:51:09;101055.0;;;13.65;44.41
50652;BME280;66928;52.086;5.240;2023-03-16T12:52:48;101055.0;;;13.77;44.68
50652;BME280;66928;52.086;5.240;2023-03-16T12:54:26;101047.0;;;13.81;43.79
50652;BME280;66928;52.086;5.240;2023-03-16T12:56:05;101038.0;;;13.89;43.81
50652;BME280;66928;52.086;5.240;2023-03-16T12:59:21;101024.0;;;14.07;44.39
50652;BME280;66928;52.086;5.240;2023-03-16T13:00:59;101030.0;;;14.08;44.38
50652;BME280;66928;52.086;5.240;2023-03-16T13:02:36;101026.0;;;14.12;43.59
50652;BME280;66928;52.086;5.240;2023-03-16T13:05:58;101023.0;;;14.23;44.36
50652;BME280;66928;52.086;5.240;2023-03-16T13:07:36;101017.0;;;14.22;43.38
50652;BME280;66928;52.086;5.240;2023-03-16T13:09:17;101011.0;;;14.26;43.22
50652;BME280;66928;52.086;5.240;2023-03-16T13:11:03;101003.0;;;14.32;43.38
50652;BME280;66928;52.086;5.240;2023-03-16T13:14:36;100997.0;;;14.21;42.9
50652;BME280;66928;52.086;5.240;2023-03-16T13:16:26;100997.0;;;14.22;42.12
50652;BME280;66928;52.086;5.240;2023-03-16T13:18:26;101002.0;;;14.27;42.57
50652;BME280;66928;52.086;5.240;2023-03-16T13:20:26;101010.0;;;14.26;42.25
50652;BME280;66928;52.086;5.240;2023-03-16T13:22:18;101008.0;;;14.13;41.62
50652;BME280;66928;52.086;5.240;2023-03-16T13:24:12;101001.0;;;14.3;41.65
50652;BME280;66928;52.086;5.240;2023-03-16T13:26:00;101005.0;;;14.29;41.18
50652;BME280;66928;52.086;5.240;2023-03-16T13:27:41;101000.0;;;14.19;40.96
50652;BME280;66928;52.086;5.240;2023-03-16T13:31:00;100999.0;;;14.16;41.29
50652;BME280;66928;52.086;5.240;2023-03-16T13:32:37;100990.0;;;14.23;41.08
50652;BME280;66928;52.086;5.240;2023-03-16T13:34:19;100986.0;;;14.23;41.09
50652;BME280;66928;52.086;5.240;2023-03-16T13:35:59;100989.0;;;14.11;40.28
50652;BME280;66928;52.086;5.240;2023-03-16T13:39:14;100980.0;;;14.36;40.54
50652;BME280;66928;52.086;5.240;2023-03-16T13:40:54;100976.0;;;14.48;40.72
50652;BME280;66928;52.086;5.240;2023-03-16T13:42:32;100970.0;;;14.5;40.46
50652;BME280;66928;52.086;5.240;2023-03-16T13:44:12;100972.0;;;14.58;40.81
50652;BME280;66928;52.086;5.240;2023-03-16T13:47:26;100966.0;;;14.68;41.06
50652;BME280;66928;52.086;5.240;2023-03-16T13:49:03;100956.0;;;14.68;41.04
50652;BME280;66928;52.086;5.240;2023-03-16T13:50:40;100963.0;;;14.75;39.85
50652;BME280;66928;52.086;5.240;2023-03-16T13:54:04;100957.0;;;14.85;40.68
50652;BME280;66928;52.086;5.240;2023-03-16T13:55:51;100957.0;;;14.95;40.35
50652;BME280;66928;52.086;5.240;2023-03-16T13:57:29;100959.0;;;14.9;39.92
50652;BME280;66928;52.086;5.240;2023-03-16T13:59:10;100964.0;;;15.03;40.07
50652;BME280;66928;52.086;5.240;2023-03-16T14:02:22;100964.0;;;15.06;39.68
50652;BME280;66928;52.086;5.240;2023-03-16T14:04:00;100953.0;;;14.92;39.06
50652;BME280;66928;52.086;5.240;2023-03-16T14:05:38;100963.0;;;14.95;39.53
50652;BME280;66928;52.086;5.240;2023-03-16T14:07:16;100960.0;;;15.1;39.43
50652;BME280;66928;52.086;5.240;2023-03-16T14:10:34;100953.0;;;15.11;39.68
50652;BME280;66928;52.086;5.240;2023-03-16T14:12:13;100957.0;;;15.18;39.71
50652;BME280;66928;52.086;5.240;2023-03-16T14:13:51;100943.0;;;15.04;39.46
50652;BME280;66928;52.086;5.240;2023-03-16T14:17:09;100945.0;;;15.05;39.71
50652;BME280;66928;52.086;5.240;2023-03-16T14:18:50;100943.0;;;15.05;39.53
50652;BME280;66928;52.086;5.240;2023-03-16T14:20:32;100943.0;;;15.01;39.54
50652;BME280;66928;52.086;5.240;2023-03-16T14:22:12;100941.0;;;15.11;39.75
50652;BME280;66928;52.086;5.240;2023-03-16T14:25:28;100932.0;;;15.2;38.99
50652;BME280;66928;52.086;5.240;2023-03-16T14:27:13;100943.0;;;15.22;39.03
50652;BME280;66928;52.086;5.240;2023-03-16T14:29:05;100937.0;;;15.06;38.0
50652;BME280;66928;52.086;5.240;2023-03-16T14:31:02;100937.0;;;15.32;38.5
50652;BME280;66928;52.086;5.240;2023-03-16T14:32:40;100931.0;;;15.13;38.37
50652;BME280;66928;52.086;5.240;2023-03-16T14:36:10;100932.0;;;15.26;38.87
50652;BME280;66928;52.086;5.240;2023-03-16T14:37:47;100925.0;;;15.26;38.49
50652;BME280;66928;52.086;5.240;2023-03-16T14:39:26;100921.0;;;15.2;38.0
50652;BME280;66928;52.086;5.240;2023-03-16T14:41:04;100924.0;;;15.18;38.42
50652;BME280;66928;52.086;5.240;2023-03-16T14:42:41;100922.0;;;15.12;38.1
50652;BME280;66928;52.086;5.240;2023-03-16T14:45:58;100919.0;;;15.28;38.39
50652;BME280;66928;52.086;5.240;2023-03-16T14:47:38;100917.0;;;15.13;38.32
50652;BME280;66928;52.086;5.240;2023-03-16T14:49:21;100905.0;;;15.06;38.47
50652;BME280;66928;52.086;5.240;2023-03-16T14:52:37;100906.0;;;14.99;39.14
50652;BME280;66928;52.086;5.240;2023-03-16T14:54:15;100906.0;;;15.06;38.96
50652;BME280;66928;52.086;5.240;2023-03-16T14:55:51;100897.0;;;14.96;38.9
50652;BME280;66928;52.086;5.240;2023-03-16T14:57:28;100898.0;;;14.94;38.49
50652;BME280;66928;52.086;5.240;2023-03-16T15:00:41;100895.0;;;15.02;38.53
50652;BME280;66928;52.086;5.240;2023-03-16T15:02:20;100897.0;;;15.03;39.08
50652;BME280;66928;52.086;5.240;2023-03-16T15:03:59;100889.0;;;15.05;39.44
50652;BME280;66928;52.086;5.240;2023-03-16T15:07:22;100882.0;;;15.09;39.31
50652;BME280;66928;52.086;5.240;2023-03-16T15:09:00;100875.0;;;15.04;38.78
50652;BME280;66928;52.086;5.240;2023-03-16T15:10:36;100880.0;;;15.16;38.92
50652;BME280;66928;52.086;5.240;2023-03-16T15:12:13;100876.0;;;15.24;39.08
50652;BME280;66928;52.086;5.240;2023-03-16T15:15:27;100874.0;;;15.22;38.76
50652;BME280;66928;52.086;5.240;2023-03-16T15:17:03;100870.0;;;15.19;38.46
50652;BME280;66928;52.086;5.240;2023-03-16T15:18:40;100865.0;;;15.29;38.86
50652;BME280;66928;52.086;5.240;2023-03-16T15:21:57;100860.0;;;15.43;38.26
50652;BME280;66928;52.086;5.240;2023-03-16T15:23:35;100856.0;;;15.34;38.67
50652;BME280;66928;52.086;5.240;2023-03-16T15:25:22;100856.0;;;15.24;38.21
50652;BME280;66928;52.086;5.240;2023-03-16T15:27:18;100850.0;;;15.25;38.29
50652;BME280;66928;52.086;5.240;2023-03-16T15:28:56;100848.0;;;15.27;37.99
50652;BME280;66928;52.086;5.240;2023-03-16T15:32:11;100845.0;;;15.51;38.03
50652;BME280;66928;52.086;5.240;2023-03-16T15:33:49;100843.0;;;15.45;38.25
50652;BME280;66928;52.086;5.240;2023-03-16T15:35:25;100842.0;;;15.65;38.01
50652;BME280;66928;52.086;5.240;2023-03-16T15:38:39;100837.0;;;15.55;38.21
50652;BME280;66928;52.086;5.240;2023-03-16T15:40:20;100832.0;;;15.47;37.89
50652;BME280;66928;52.086;5.240;2023-03-16T15:41:58;100841.0;;;15.59;38.04
50652;BME280;66928;52.086;5.240;2023-03-16T15:43:35;100839.0;;;15.77;38.12
50652;BME280;66928;52.086;5.240;2023-03-16T15:46:50;100835.0;;;15.64;37.58
50652;BME280;66928;52.086;5.240;2023-03-16T15:48:26;100835.0;;;15.51;37.56
50652;BME280;66928;52.086;5.240;2023-03-16T15:50:02;100835.0;;;15.69;37.18
50652;BME280;66928;52.086;5.240;2023-03-16T15:53:19;100839.0;;;15.71;37.07
50652;BME280;66928;52.086;5.240;2023-03-16T15:54:59;100838.0;;;15.76;37.31
50652;BME280;66928;52.086;5.240;2023-03-16T16:01:20;100831.0;;;15.72;37.33
50652;BME280;66928;52.086;5.240;2023-03-16T16:02:56;100826.0;;;15.87;36.96
50652;BME280;66928;52.086;5.240;2023-03-16T16:04:33;100824.0;;;15.83;36.99
50652;BME280;66928;52.086;5.240;2023-03-16T16:07:46;100824.0;;;15.55;37.17
50652;BME280;66928;52.086;5.240;2023-03-16T16:09:22;100818.0;;;15.56;37.1
50652;BME280;66928;52.086;5.240;2023-03-16T16:10:59;100819.0;;;15.64;37.12
50652;BME280;66928;52.086;5.240;2023-03-16T16:14:14;100819.0;;;15.64;37.39
50652;BME280;66928;52.086;5.240;2023-03-16T16:15:50;100823.0;;;15.73;37.64
50652;BME280;66928;52.086;5.240;2023-03-16T16:17:27;100821.0;;;15.7;37.47
50652;BME280;66928;52.086;5.240;2023-03-16T16:19:03;100820.0;;;15.68;37.92
50652;BME280;66928;52.086;5.240;2023-03-16T16:22:15;100819.0;;;15.71;37.75
50652;BME280;66928;52.086;5.240;2023-03-16T16:23:51;100815.0;;;15.69;37.71
50652;BME280;66928;52.086;5.240;2023-03-16T16:25:34;100810.0;;;15.55;37.42
50652;BME280;66928;52.086;5.240;2023-03-16T16:28:49;100811.0;;;15.57;37.82
50652;BME280;66928;52.086;5.240;2023-03-16T16:30:26;100810.0;;;15.6;37.99
50652;BME280;66928;52.086;5.240;2023-03-16T16:32:19;100807.0;;;15.48;38.03
50652;BME280;66928;52.086;5.240;2023-03-16T16:33:57;100803.0;;;15.34;38.35
50652;BME280;66928;52.086;5.240;2023-03-16T16:37:09;100809.0;;;15.44;37.74
50652;BME280;66928;52.086;5.240;2023-03-16T16:38:46;100813.0;;;15.49;37.79
50652;BME280;66928;52.086;5.240;2023-03-16T16:40:23;100811.0;;;15.37;37.92
50652;BME280;66928;52.086;5.240;2023-03-16T16:42:14;100815.0;;;15.45;38.0
50652;BME280;66928;52.086;5.240;2023-03-16T16:45:28;100813.0;;;15.36;38.03
50652;BME280;66928;52.086;5.240;2023-03-16T16:47:16;100816.0;;;15.44;37.87
50652;BME280;66928;52.086;5.240;2023-03-16T16:48:57;100813.0;;;15.38;37.56
50652;BME280;66928;52.086;5.240;2023-03-16T16:50:35;100817.0;;;15.37;37.89
50652;BME280;66928;52.086;5.240;2023-03-16T16:53:52;100822.0;;;15.23;38.24
50652;BME280;66928;52.086;5.240;2023-03-16T16:55:30;100825.0;;;15.22;38.29
50652;BME280;66928;52.086;5.240;2023-03-16T16:57:14;100821.0;;;15.22;38.51
50652;BME280;66928;52.086;5.240;2023-03-16T16:58:52;100817.0;;;15.2;38.78
50652;BME280;66928;52.086;5.240;2023-03-16T17:02:20;100808.0;;;15.02;38.87
50652;BME280;66928;52.086;5.240;2023-03-16T17:03:57;100807.0;;;15.09;38.42
50652;BME280;66928;52.086;5.240;2023-03-16T17:05:34;100805.0;;;15.17;38.42
50652;BME280;66928;52.086;5.240;2023-03-16T17:07:11;100807.0;;;14.97;38.89
50652;BME280;66928;52.086;5.240;2023-03-16T17:10:26;100808.0;;;14.9;39.1
50652;BME280;66928;52.086;5.240;2023-03-16T17:12:02;100817.0;;;14.93;38.65
50652;BME280;66928;52.086;5.240;2023-03-16T17:13:39;100812.0;;;14.94;38.74
50652;BME280;66928;52.086;5.240;2023-03-16T17:17:00;100803.0;;;14.78;39.1
50652;BME280;66928;52.086;5.240;2023-03-16T17:18:36;100806.0;;;14.62;39.25
50652;BME280;66928;52.086;5.240;2023-03-16T17:20:14;100811.0;;;14.63;39.37
50652;BME280;66928;52.086;5.240;2023-03-16T17:21:52;100814.0;;;14.61;39.54
50652;BME280;66928;52.086;5.240;2023-03-16T17:25:07;100811.0;;;14.53;39.12
50652;BME280;66928;52.086;5.240;2023-03-16T17:26:45;100811.0;;;14.44;40.04
50652;BME280;66928;52.086;5.240;2023-03-16T17:28:24;100810.0;;;14.51;39.6
50652;BME280;66928;52.086;5.240;2023-03-16T17:30:00;100809.0;;;14.47;39.78
50652;BME280;66928;52.086;5.240;2023-03-16T17:33:17;100805.0;;;14.24;39.89
50652;BME280;66928;52.086;5.240;2023-03-16T17:34:54;100813.0;;;14.14;40.15
50652;BME280;66928;52.086;5.240;2023-03-16T17:36:30;100805.0;;;14.1;40.15
50652;BME280;66928;52.086;5.240;2023-03-16T17:41:28;100802.0;;;14.05;40.15
50652;BME280;66928;52.086;5.240;2023-03-16T17:43:04;100802.0;;;13.99;40.47
50652;BME280;66928;52.086;5.240;2023-03-16T17:44:48;100801.0;;;14.01;40.51
50652;BME280;66928;52.086;5.240;2023-03-16T17:48:11;100782.0;;;13.92;40.85
50652;BME280;66928;52.086;5.240;2023-03-16T17:49:48;100781.0;;;13.63;41.58
50652;BME280;66928;52.086;5.240;2023-03-16T17:51:25;100785.0;;;13.48;42.13
50652;BME280;66928;52.086;5.240;2023-03-16T17:53:03;100780.0;;;13.5;42.54
50652;BME280;66928;52.086;5.240;2023-03-16T17:56:17;100783.0;;;13.68;42.75
50652;BME280;66928;52.086;5.240;2023-03-16T17:57:54;100791.0;;;13.43;43.44